sensor_id;sensor_type;location;lat;lon;timestamp;P1;durP1;ratioP1;P2;durP2;ratioP2
23119;SDS011;11729;50.836;4.330;2022-07-23T00:02:05;24.08;;;21.40;;
23119;SDS011;11729;50.836;4.330;2022-07-23T00:04:31;27.08;;;21.58;;
23119;SDS011;11729;50.836;4.330;2022-07-23T00:06:57;26.52;;;23.33;;
23119;SDS011;11729;50.836;4.330;2022-07-23T00:09:23;27.17;;;23.63;;
23119;SDS011;11729;50.836;4.330;2022-07-23T00:11:48;29.00;;;23.45;;
23119;SDS011;11729;50.836;4.330;2022-07-23T00:14:14;29.25;;;23.67;;
23119;SDS011;11729;50.836;4.330;2022-07-23T00:16:40;27.20;;;22.98;;
23119;SDS011;11729;50.836;4.330;2022-07-23T00:19:05;30.70;;;23.30;;
23119;SDS011;11729;50.836;4.330;2022-07-23T00:21:31;28.35;;;22.70;;
23119;SDS011;11729;50.836;4.330;2022-07-23T00:23:56;27.15;;;23.50;;
23119;SDS011;11729;50.836;4.330;2022-07-23T00:26:22;25.15;;;22.55;;
23119;SDS011;11729;50.836;4.330;2022-07-23T00:28:47;26.33;;;23.15;;
23119;SDS011;11729;50.836;4.330;2022-07-23T00:31:13;27.92;;;23.83;;
23119;SDS011;11729;50.836;4.330;2022-07-23T00:33:41;30.02;;;23.73;;
23119;SDS011;11729;50.836;4.330;2022-07-23T00:36:07;26.35;;;22.45;;
23119;SDS011;11729;50.836;4.330;2022-07-23T00:38:33;25.63;;;22.85;;
23119;SDS011;11729;50.836;4.330;2022-07-23T00:40:58;28.30;;;23.65;;
23119;SDS011;11729;50.836;4.330;2022-07-23T00:43:24;27.35;;;22.30;;
23119;SDS011;11729;50.836;4.330;2022-07-23T00:45:50;26.63;;;23.38;;
23119;SDS011;11729;50.836;4.330;2022-07-23T00:48:16;28.77;;;23.00;;
23119;SDS011;11729;50.836;4.330;2022-07-23T00:50:42;26.38;;;22.67;;
23119;SDS011;11729;50.836;4.330;2022-07-23T00:53:08;26.92;;;23.20;;
23119;SDS011;11729;50.836;4.330;2022-07-23T00:55:35;27.10;;;22.33;;
23119;SDS011;11729;50.836;4.330;2022-07-23T00:58:01;31.52;;;23.17;;
23119;SDS011;11729;50.836;4.330;2022-07-23T01:00:27;27.25;;;23.52;;
23119;SDS011;11729;50.836;4.330;2022-07-23T01:02:53;28.33;;;23.52;;
23119;SDS011;11729;50.836;4.330;2022-07-23T01:05:19;28.00;;;22.45;;
23119;SDS011;11729;50.836;4.330;2022-07-23T01:07:49;26.67;;;22.08;;
23119;SDS011;11729;50.836;4.330;2022-07-23T01:10:15;27.85;;;23.60;;
23119;SDS011;11729;50.836;4.330;2022-07-23T01:13:00;28.58;;;23.60;;
23119;SDS011;11729;50.836;4.330;2022-07-23T01:15:36;26.77;;;23.95;;
23119;SDS011;11729;50.836;4.330;2022-07-23T01:18:03;28.05;;;23.65;;
23119;SDS011;11729;50.836;4.330;2022-07-23T01:20:30;26.85;;;23.45;;
23119;SDS011;11729;50.836;4.330;2022-07-23T01:22:57;27.13;;;23.05;;
23119;SDS011;11729;50.836;4.330;2022-07-23T01:25:23;27.52;;;23.50;;
23119;SDS011;11729;50.836;4.330;2022-07-23T01:27:49;26.65;;;22.75;;
23119;SDS011;11729;50.836;4.330;2022-07-23T01:30:16;26.52;;;23.75;;
23119;SDS011;11729;50.836;4.330;2022-07-23T01:32:41;28.08;;;23.85;;
23119;SDS011;11729;50.836;4.330;2022-07-23T01:35:07;30.73;;;23.23;;
23119;SDS011;11729;50.836;4.330;2022-07-23T01:37:34;25.75;;;22.85;;
23119;SDS011;11729;50.836;4.330;2022-07-23T01:40:00;29.45;;;24.23;;
23119;SDS011;11729;50.836;4.330;2022-07-23T01:42:26;27.60;;;22.77;;
23119;SDS011;11729;50.836;4.330;2022-07-23T01:44:52;25.95;;;23.17;;
23119;SDS011;11729;50.836;4.330;2022-07-23T01:47:17;26.17;;;23.27;;
23119;SDS011;11729;50.836;4.330;2022-07-23T01:49:43;26.00;;;23.08;;
23119;SDS011;11729;50.836;4.330;2022-07-23T01:52:08;25.73;;;23.00;;
23119;SDS011;11729;50.836;4.330;2022-07-23T01:54:37;27.02;;;22.70;;
23119;SDS011;11729;50.836;4.330;2022-07-23T01:57:04;24.15;;;21.70;;
23119;SDS011;11729;50.836;4.330;2022-07-23T01:59:30;25.40;;;21.92;;
23119;SDS011;11729;50.836;4.330;2022-07-23T02:01:56;30.40;;;22.90;;
23119;SDS011;11729;50.836;4.330;2022-07-23T02:04:22;32.05;;;22.40;;
23119;SDS011;11729;50.836;4.330;2022-07-23T02:06:50;25.30;;;22.50;;
23119;SDS011;11729;50.836;4.330;2022-07-23T02:09:16;26.80;;;21.70;;
23119;SDS011;11729;50.836;4.330;2022-07-23T02:11:42;25.83;;;21.63;;
23119;SDS011;11729;50.836;4.330;2022-07-23T02:14:09;26.50;;;22.23;;
23119;SDS011;11729;50.836;4.330;2022-07-23T02:16:35;25.02;;;21.38;;
23119;SDS011;11729;50.836;4.330;2022-07-23T02:19:00;26.88;;;22.60;;
23119;SDS011;11729;50.836;4.330;2022-07-23T02:21:27;23.20;;;20.73;;
23119;SDS011;11729;50.836;4.330;2022-07-23T02:23:52;29.25;;;22.92;;
23119;SDS011;11729;50.836;4.330;2022-07-23T02:26:18;23.83;;;21.45;;
23119;SDS011;11729;50.836;4.330;2022-07-23T02:28:43;27.60;;;22.08;;
23119;SDS011;11729;50.836;4.330;2022-07-23T02:31:09;26.73;;;21.85;;
23119;SDS011;11729;50.836;4.330;2022-07-23T02:33:35;25.50;;;22.33;;
23119;SDS011;11729;50.836;4.330;2022-07-23T02:36:00;26.08;;;21.67;;
23119;SDS011;11729;50.836;4.330;2022-07-23T02:38:26;25.73;;;22.25;;
23119;SDS011;11729;50.836;4.330;2022-07-23T02:40:51;28.73;;;22.27;;
23119;SDS011;11729;50.836;4.330;2022-07-23T02:43:17;27.65;;;24.33;;
23119;SDS011;11729;50.836;4.330;2022-07-23T02:45:43;32.97;;;23.83;;
23119;SDS011;11729;50.836;4.330;2022-07-23T02:48:08;30.75;;;25.30;;
23119;SDS011;11729;50.836;4.330;2022-07-23T02:50:34;28.17;;;24.77;;
23119;SDS011;11729;50.836;4.330;2022-07-23T02:53:00;30.10;;;25.55;;
23119;SDS011;11729;50.836;4.330;2022-07-23T02:55:26;30.77;;;24.95;;
23119;SDS011;11729;50.836;4.330;2022-07-23T02:57:52;32.55;;;26.13;;
23119;SDS011;11729;50.836;4.330;2022-07-23T03:00:17;32.78;;;25.80;;
23119;SDS011;11729;50.836;4.330;2022-07-23T03:02:43;31.63;;;25.95;;
23119;SDS011;11729;50.836;4.330;2022-07-23T03:05:09;29.90;;;26.13;;
23119;SDS011;11729;50.836;4.330;2022-07-23T03:07:35;31.65;;;25.33;;
23119;SDS011;11729;50.836;4.330;2022-07-23T03:10:01;29.23;;;25.83;;
23119;SDS011;11729;50.836;4.330;2022-07-23T03:12:27;33.22;;;25.52;;
23119;SDS011;11729;50.836;4.330;2022-07-23T03:14:53;31.10;;;26.55;;
23119;SDS011;11729;50.836;4.330;2022-07-23T03:17:19;30.13;;;25.73;;
23119;SDS011;11729;50.836;4.330;2022-07-23T03:19:44;30.10;;;25.88;;
23119;SDS011;11729;50.836;4.330;2022-07-23T03:22:10;29.27;;;25.00;;
23119;SDS011;11729;50.836;4.330;2022-07-23T03:24:35;28.77;;;25.15;;
23119;SDS011;11729;50.836;4.330;2022-07-23T03:27:22;28.92;;;25.70;;
23119;SDS011;11729;50.836;4.330;2022-07-23T03:29:53;27.88;;;24.83;;
23119;SDS011;11729;50.836;4.330;2022-07-23T03:32:20;28.10;;;25.15;;
23119;SDS011;11729;50.836;4.330;2022-07-23T03:34:46;31.33;;;26.10;;
23119;SDS011;11729;50.836;4.330;2022-07-23T03:37:12;29.27;;;25.75;;
23119;SDS011;11729;50.836;4.330;2022-07-23T03:39:38;34.72;;;25.70;;
23119;SDS011;11729;50.836;4.330;2022-07-23T03:42:04;31.67;;;25.88;;
23119;SDS011;11729;50.836;4.330;2022-07-23T03:44:30;30.25;;;26.75;;
23119;SDS011;11729;50.836;4.330;2022-07-23T03:46:56;30.58;;;25.70;;
23119;SDS011;11729;50.836;4.330;2022-07-23T03:49:22;35.05;;;26.15;;
23119;SDS011;11729;50.836;4.330;2022-07-23T03:51:47;29.05;;;25.95;;
23119;SDS011;11729;50.836;4.330;2022-07-23T03:54:13;39.40;;;26.67;;
23119;SDS011;11729;50.836;4.330;2022-07-23T03:56:39;32.05;;;25.88;;
23119;SDS011;11729;50.836;4.330;2022-07-23T03:59:04;29.52;;;25.50;;
23119;SDS011;11729;50.836;4.330;2022-07-23T04:01:30;30.08;;;24.83;;
23119;SDS011;11729;50.836;4.330;2022-07-23T04:03:56;30.77;;;26.02;;
23119;SDS011;11729;50.836;4.330;2022-07-23T04:06:21;31.60;;;24.52;;
23119;SDS011;11729;50.836;4.330;2022-07-23T04:08:47;30.20;;;24.77;;
23119;SDS011;11729;50.836;4.330;2022-07-23T04:11:14;27.77;;;24.42;;
23119;SDS011;11729;50.836;4.330;2022-07-23T04:13:39;32.30;;;25.88;;
23119;SDS011;11729;50.836;4.330;2022-07-23T04:16:05;26.75;;;23.95;;
23119;SDS011;11729;50.836;4.330;2022-07-23T04:18:31;29.45;;;26.27;;
23119;SDS011;11729;50.836;4.330;2022-07-23T04:20:57;32.28;;;26.33;;
23119;SDS011;11729;50.836;4.330;2022-07-23T04:23:22;31.25;;;24.65;;
23119;SDS011;11729;50.836;4.330;2022-07-23T04:25:48;28.77;;;24.77;;
23119;SDS011;11729;50.836;4.330;2022-07-23T04:28:14;32.30;;;23.65;;
23119;SDS011;11729;50.836;4.330;2022-07-23T04:30:40;32.35;;;25.08;;
23119;SDS011;11729;50.836;4.330;2022-07-23T04:33:05;28.52;;;24.73;;
23119;SDS011;11729;50.836;4.330;2022-07-23T04:35:32;31.33;;;24.85;;
23119;SDS011;11729;50.836;4.330;2022-07-23T04:37:58;27.55;;;23.98;;
23119;SDS011;11729;50.836;4.330;2022-07-23T04:40:24;28.65;;;24.70;;
23119;SDS011;11729;50.836;4.330;2022-07-23T04:42:50;31.30;;;23.55;;
23119;SDS011;11729;50.836;4.330;2022-07-23T04:45:16;28.55;;;24.33;;
23119;SDS011;11729;50.836;4.330;2022-07-23T04:47:41;28.85;;;23.33;;
23119;SDS011;11729;50.836;4.330;2022-07-23T04:50:07;31.08;;;22.95;;
23119;SDS011;11729;50.836;4.330;2022-07-23T04:52:33;26.58;;;23.20;;
23119;SDS011;11729;50.836;4.330;2022-07-23T04:54:59;28.23;;;22.17;;
23119;SDS011;11729;50.836;4.330;2022-07-23T04:57:24;23.77;;;21.35;;
23119;SDS011;11729;50.836;4.330;2022-07-23T04:59:50;27.75;;;21.88;;
23119;SDS011;11729;50.836;4.330;2022-07-23T05:02:15;25.75;;;20.35;;
23119;SDS011;11729;50.836;4.330;2022-07-23T05:04:41;25.52;;;20.48;;
23119;SDS011;11729;50.836;4.330;2022-07-23T05:07:07;28.70;;;21.08;;
23119;SDS011;11729;50.836;4.330;2022-07-23T05:09:32;24.70;;;19.90;;
23119;SDS011;11729;50.836;4.330;2022-07-23T05:12:00;22.08;;;19.63;;
23119;SDS011;11729;50.836;4.330;2022-07-23T05:14:25;21.92;;;19.63;;
23119;SDS011;11729;50.836;4.330;2022-07-23T05:16:52;21.67;;;19.10;;
23119;SDS011;11729;50.836;4.330;2022-07-23T05:19:18;25.92;;;20.08;;
23119;SDS011;11729;50.836;4.330;2022-07-23T05:21:45;25.67;;;19.17;;
23119;SDS011;11729;50.836;4.330;2022-07-23T05:24:13;23.50;;;19.13;;
23119;SDS011;11729;50.836;4.330;2022-07-23T05:26:38;20.75;;;18.48;;
23119;SDS011;11729;50.836;4.330;2022-07-23T05:29:04;19.45;;;17.40;;
23119;SDS011;11729;50.836;4.330;2022-07-23T05:31:30;22.50;;;17.88;;
23119;SDS011;11729;50.836;4.330;2022-07-23T05:33:55;22.30;;;18.05;;
23119;SDS011;11729;50.836;4.330;2022-07-23T05:36:21;20.83;;;18.73;;
23119;SDS011;11729;50.836;4.330;2022-07-23T05:38:46;20.40;;;18.35;;
23119;SDS011;11729;50.836;4.330;2022-07-23T05:41:13;28.73;;;19.40;;
23119;SDS011;11729;50.836;4.330;2022-07-23T05:43:39;21.42;;;19.05;;
23119;SDS011;11729;50.836;4.330;2022-07-23T05:46:05;21.20;;;18.35;;
23119;SDS011;11729;50.836;4.330;2022-07-23T05:48:30;27.52;;;19.17;;
23119;SDS011;11729;50.836;4.330;2022-07-23T05:50:56;27.08;;;18.77;;
23119;SDS011;11729;50.836;4.330;2022-07-23T05:53:22;21.55;;;19.33;;
23119;SDS011;11729;50.836;4.330;2022-07-23T05:55:48;21.67;;;19.25;;
23119;SDS011;11729;50.836;4.330;2022-07-23T05:58:13;21.25;;;18.92;;
23119;SDS011;11729;50.836;4.330;2022-07-23T06:00:39;26.58;;;17.85;;
23119;SDS011;11729;50.836;4.330;2022-07-23T06:03:05;18.30;;;16.00;;
23119;SDS011;11729;50.836;4.330;2022-07-23T06:05:30;19.33;;;16.95;;
23119;SDS011;11729;50.836;4.330;2022-07-23T06:07:56;18.30;;;16.35;;
23119;SDS011;11729;50.836;4.330;2022-07-23T06:10:21;17.67;;;15.70;;
23119;SDS011;11729;50.836;4.330;2022-07-23T06:12:47;23.10;;;16.02;;
23119;SDS011;11729;50.836;4.330;2022-07-23T06:15:13;18.55;;;15.98;;
23119;SDS011;11729;50.836;4.330;2022-07-23T06:17:40;17.13;;;15.37;;
23119;SDS011;11729;50.836;4.330;2022-07-23T06:20:06;19.08;;;14.38;;
23119;SDS011;11729;50.836;4.330;2022-07-23T06:22:33;18.70;;;14.32;;
23119;SDS011;11729;50.836;4.330;2022-07-23T06:24:59;16.35;;;14.60;;
23119;SDS011;11729;50.836;4.330;2022-07-23T06:27:24;15.60;;;13.50;;
23119;SDS011;11729;50.836;4.330;2022-07-23T06:29:50;15.13;;;13.57;;
23119;SDS011;11729;50.836;4.330;2022-07-23T06:32:16;14.90;;;13.48;;
23119;SDS011;11729;50.836;4.330;2022-07-23T06:34:41;15.85;;;13.93;;
23119;SDS011;11729;50.836;4.330;2022-07-23T06:37:07;15.23;;;13.68;;
23119;SDS011;11729;50.836;4.330;2022-07-23T06:39:32;15.43;;;13.85;;
23119;SDS011;11729;50.836;4.330;2022-07-23T06:41:58;14.93;;;13.20;;
23119;SDS011;11729;50.836;4.330;2022-07-23T06:44:24;14.98;;;13.02;;
23119;SDS011;11729;50.836;4.330;2022-07-23T06:46:49;15.23;;;13.63;;
23119;SDS011;11729;50.836;4.330;2022-07-23T06:49:15;15.30;;;13.18;;
23119;SDS011;11729;50.836;4.330;2022-07-23T06:51:40;17.40;;;13.18;;
23119;SDS011;11729;50.836;4.330;2022-07-23T06:54:06;14.75;;;13.00;;
23119;SDS011;11729;50.836;4.330;2022-07-23T06:56:32;19.90;;;13.32;;
23119;SDS011;11729;50.836;4.330;2022-07-23T06:58:58;14.27;;;12.68;;
23119;SDS011;11729;50.836;4.330;2022-07-23T07:01:24;14.98;;;12.50;;
23119;SDS011;11729;50.836;4.330;2022-07-23T07:03:49;16.08;;;12.88;;
23119;SDS011;11729;50.836;4.330;2022-07-23T07:06:16;13.82;;;12.45;;
23119;SDS011;11729;50.836;4.330;2022-07-23T07:08:43;16.40;;;13.75;;
23119;SDS011;11729;50.836;4.330;2022-07-23T07:11:09;14.40;;;12.88;;
23119;SDS011;11729;50.836;4.330;2022-07-23T07:13:35;16.90;;;13.48;;
23119;SDS011;11729;50.836;4.330;2022-07-23T07:16:01;15.93;;;14.18;;
23119;SDS011;11729;50.836;4.330;2022-07-23T07:18:26;14.55;;;13.07;;
23119;SDS011;11729;50.836;4.330;2022-07-23T07:20:52;18.60;;;13.45;;
23119;SDS011;11729;50.836;4.330;2022-07-23T07:23:18;16.13;;;13.00;;
23119;SDS011;11729;50.836;4.330;2022-07-23T07:25:45;15.25;;;12.95;;
23119;SDS011;11729;50.836;4.330;2022-07-23T07:28:11;15.43;;;12.60;;
23119;SDS011;11729;50.836;4.330;2022-07-23T07:30:37;14.25;;;12.07;;
23119;SDS011;11729;50.836;4.330;2022-07-23T07:33:03;13.57;;;11.95;;
23119;SDS011;11729;50.836;4.330;2022-07-23T07:35:29;13.70;;;12.32;;
23119;SDS011;11729;50.836;4.330;2022-07-23T07:37:56;17.83;;;12.57;;
23119;SDS011;11729;50.836;4.330;2022-07-23T07:40:21;15.77;;;12.55;;
23119;SDS011;11729;50.836;4.330;2022-07-23T07:42:48;15.65;;;12.60;;
23119;SDS011;11729;50.836;4.330;2022-07-23T07:45:15;14.38;;;12.48;;
23119;SDS011;11729;50.836;4.330;2022-07-23T07:47:41;14.05;;;12.40;;
23119;SDS011;11729;50.836;4.330;2022-07-23T07:50:07;13.60;;;11.85;;
23119;SDS011;11729;50.836;4.330;2022-07-23T07:52:34;14.57;;;11.88;;
23119;SDS011;11729;50.836;4.330;2022-07-23T07:57:30;15.57;;;12.02;;
23119;SDS011;11729;50.836;4.330;2022-07-23T07:59:56;16.42;;;12.40;;
23119;SDS011;11729;50.836;4.330;2022-07-23T08:02:22;15.88;;;11.75;;
23119;SDS011;11729;50.836;4.330;2022-07-23T08:04:47;15.20;;;11.32;;
23119;SDS011;11729;50.836;4.330;2022-07-23T08:07:14;13.13;;;11.73;;
23119;SDS011;11729;50.836;4.330;2022-07-23T08:09:40;13.87;;;11.93;;
23119;SDS011;11729;50.836;4.330;2022-07-23T08:12:05;15.07;;;12.27;;
23119;SDS011;11729;50.836;4.330;2022-07-23T08:14:31;15.30;;;11.50;;
23119;SDS011;11729;50.836;4.330;2022-07-23T08:16:57;13.18;;;11.30;;
23119;SDS011;11729;50.836;4.330;2022-07-23T08:19:22;16.90;;;11.73;;
23119;SDS011;11729;50.836;4.330;2022-07-23T08:21:48;12.85;;;11.30;;
23119;SDS011;11729;50.836;4.330;2022-07-23T08:24:13;14.00;;;10.23;;
23119;SDS011;11729;50.836;4.330;2022-07-23T08:26:39;14.00;;;11.57;;
23119;SDS011;11729;50.836;4.330;2022-07-23T08:29:05;13.93;;;11.73;;
23119;SDS011;11729;50.836;4.330;2022-07-23T08:31:31;13.27;;;11.38;;
23119;SDS011;11729;50.836;4.330;2022-07-23T08:34:00;14.60;;;12.45;;
23119;SDS011;11729;50.836;4.330;2022-07-23T08:36:27;13.88;;;11.43;;
23119;SDS011;11729;50.836;4.330;2022-07-23T08:38:56;15.15;;;11.00;;
23119;SDS011;11729;50.836;4.330;2022-07-23T08:41:22;12.95;;;11.27;;
23119;SDS011;11729;50.836;4.330;2022-07-23T08:43:47;11.98;;;10.75;;
23119;SDS011;11729;50.836;4.330;2022-07-23T08:46:13;13.38;;;11.77;;
23119;SDS011;11729;50.836;4.330;2022-07-23T08:48:41;15.00;;;11.82;;
23119;SDS011;11729;50.836;4.330;2022-07-23T08:51:07;12.82;;;11.50;;
23119;SDS011;11729;50.836;4.330;2022-07-23T08:53:35;13.05;;;11.75;;
23119;SDS011;11729;50.836;4.330;2022-07-23T08:56:02;12.35;;;11.15;;
23119;SDS011;11729;50.836;4.330;2022-07-23T08:58:29;14.27;;;10.70;;
23119;SDS011;11729;50.836;4.330;2022-07-23T09:00:55;15.38;;;10.43;;
23119;SDS011;11729;50.836;4.330;2022-07-23T09:03:25;14.65;;;10.20;;
23119;SDS011;11729;50.836;4.330;2022-07-23T09:05:53;14.50;;;10.40;;
23119;SDS011;11729;50.836;4.330;2022-07-23T09:08:24;14.73;;;10.77;;
23119;SDS011;11729;50.836;4.330;2022-07-23T09:10:59;15.13;;;10.57;;
23119;SDS011;11729;50.836;4.330;2022-07-23T09:15:58;15.63;;;11.20;;
23119;SDS011;11729;50.836;4.330;2022-07-23T09:18:33;11.48;;;10.27;;
23119;SDS011;11729;50.836;4.330;2022-07-23T09:23:40;12.60;;;10.07;;
23119;SDS011;11729;50.836;4.330;2022-07-23T09:29:00;14.48;;;11.85;;
23119;SDS011;11729;50.836;4.330;2022-07-23T09:31:41;12.27;;;10.43;;
23119;SDS011;11729;50.836;4.330;2022-07-23T09:34:08;13.15;;;11.13;;
23119;SDS011;11729;50.836;4.330;2022-07-23T09:36:39;13.15;;;10.90;;
23119;SDS011;11729;50.836;4.330;2022-07-23T09:39:06;13.68;;;11.05;;
23119;SDS011;11729;50.836;4.330;2022-07-23T09:41:39;12.97;;;11.63;;
23119;SDS011;11729;50.836;4.330;2022-07-23T09:44:18;17.20;;;10.25;;
23119;SDS011;11729;50.836;4.330;2022-07-23T09:46:45;17.92;;;9.90;;
23119;SDS011;11729;50.836;4.330;2022-07-23T09:51:54;12.40;;;10.32;;
23119;SDS011;11729;50.836;4.330;2022-07-23T09:56:48;10.73;;;9.63;;
23119;SDS011;11729;50.836;4.330;2022-07-23T09:59:16;11.68;;;9.57;;
23119;SDS011;11729;50.836;4.330;2022-07-23T10:04:09;12.00;;;9.77;;
23119;SDS011;11729;50.836;4.330;2022-07-23T10:06:36;13.25;;;8.95;;
23119;SDS011;11729;50.836;4.330;2022-07-23T10:09:07;14.25;;;9.70;;
23119;SDS011;11729;50.836;4.330;2022-07-23T10:11:36;12.18;;;9.98;;
23119;SDS011;11729;50.836;4.330;2022-07-23T10:14:02;11.73;;;9.43;;
23119;SDS011;11729;50.836;4.330;2022-07-23T10:16:30;10.15;;;9.25;;
23119;SDS011;11729;50.836;4.330;2022-07-23T10:18:55;12.25;;;9.40;;
23119;SDS011;11729;50.836;4.330;2022-07-23T10:21:24;12.63;;;10.10;;
23119;SDS011;11729;50.836;4.330;2022-07-23T10:27:02;11.90;;;10.40;;
23119;SDS011;11729;50.836;4.330;2022-07-23T10:29:49;16.30;;;8.77;;
23119;SDS011;11729;50.836;4.330;2022-07-23T10:38:03;13.02;;;8.68;;
23119;SDS011;11729;50.836;4.330;2022-07-23T10:40:37;12.70;;;9.07;;
23119;SDS011;11729;50.836;4.330;2022-07-23T10:43:22;11.23;;;9.93;;
23119;SDS011;11729;50.836;4.330;2022-07-23T10:45:51;13.60;;;9.80;;
23119;SDS011;11729;50.836;4.330;2022-07-23T10:48:20;16.58;;;10.25;;
23119;SDS011;11729;50.836;4.330;2022-07-23T10:51:08;10.32;;;9.27;;
23119;SDS011;11729;50.836;4.330;2022-07-23T10:59:19;11.23;;;10.15;;
23119;SDS011;11729;50.836;4.330;2022-07-23T11:01:46;13.07;;;9.18;;
23119;SDS011;11729;50.836;4.330;2022-07-23T11:04:13;15.90;;;9.75;;
23119;SDS011;11729;50.836;4.330;2022-07-23T11:18:20;10.52;;;9.10;;
23119;SDS011;11729;50.836;4.330;2022-07-23T11:20:22;10.93;;;9.47;;
23119;SDS011;11729;50.836;4.330;2022-07-23T11:22:49;12.07;;;9.45;;
23119;SDS011;11729;50.836;4.330;2022-07-23T11:28:07;9.82;;;8.73;;
23119;SDS011;11729;50.836;4.330;2022-07-23T11:30:46;12.55;;;8.80;;
23119;SDS011;11729;50.836;4.330;2022-07-23T11:33:15;10.50;;;8.75;;
23119;SDS011;11729;50.836;4.330;2022-07-23T11:35:43;9.60;;;8.60;;
23119;SDS011;11729;50.836;4.330;2022-07-23T11:40:48;11.88;;;9.02;;
23119;SDS011;11729;50.836;4.330;2022-07-23T11:43:15;10.18;;;7.78;;
23119;SDS011;11729;50.836;4.330;2022-07-23T11:45:46;9.95;;;8.43;;
23119;SDS011;11729;50.836;4.330;2022-07-23T11:48:18;9.07;;;7.60;;
23119;SDS011;11729;50.836;4.330;2022-07-23T11:50:46;12.77;;;7.90;;
23119;SDS011;11729;50.836;4.330;2022-07-23T11:53:13;11.00;;;8.27;;
23119;SDS011;11729;50.836;4.330;2022-07-23T11:55:39;12.43;;;9.43;;
23119;SDS011;11729;50.836;4.330;2022-07-23T11:58:04;11.43;;;7.95;;
23119;SDS011;11729;50.836;4.330;2022-07-23T12:00:31;10.15;;;9.15;;
23119;SDS011;11729;50.836;4.330;2022-07-23T12:02:58;9.35;;;8.27;;
23119;SDS011;11729;50.836;4.330;2022-07-23T12:05:27;12.77;;;8.52;;
23119;SDS011;11729;50.836;4.330;2022-07-23T12:07:54;11.75;;;8.50;;
23119;SDS011;11729;50.836;4.330;2022-07-23T12:12:50;9.75;;;8.82;;
23119;SDS011;11729;50.836;4.330;2022-07-23T12:15:24;10.98;;;9.05;;
23119;SDS011;11729;50.836;4.330;2022-07-23T12:17:54;10.20;;;8.48;;
23119;SDS011;11729;50.836;4.330;2022-07-23T12:20:24;9.73;;;8.73;;
23119;SDS011;11729;50.836;4.330;2022-07-23T12:22:53;10.57;;;7.75;;
23119;SDS011;11729;50.836;4.330;2022-07-23T12:25:24;14.75;;;8.80;;
23119;SDS011;11729;50.836;4.330;2022-07-23T12:28:36;12.73;;;7.68;;
23119;SDS011;11729;50.836;4.330;2022-07-23T12:30:53;14.50;;;8.60;;
23119;SDS011;11729;50.836;4.330;2022-07-23T12:33:21;12.40;;;9.13;;
23119;SDS011;11729;50.836;4.330;2022-07-23T12:36:03;10.77;;;8.40;;
23119;SDS011;11729;50.836;4.330;2022-07-23T12:38:40;10.77;;;9.48;;
23119;SDS011;11729;50.836;4.330;2022-07-23T12:41:12;9.43;;;8.45;;
23119;SDS011;11729;50.836;4.330;2022-07-23T12:43:42;10.38;;;7.50;;
23119;SDS011;11729;50.836;4.330;2022-07-23T12:46:09;8.88;;;7.95;;
23119;SDS011;11729;50.836;4.330;2022-07-23T12:51:19;8.73;;;7.88;;
23119;SDS011;11729;50.836;4.330;2022-07-23T12:54:07;7.97;;;7.05;;
23119;SDS011;11729;50.836;4.330;2022-07-23T12:56:35;9.82;;;6.53;;
23119;SDS011;11729;50.836;4.330;2022-07-23T12:59:12;10.13;;;6.68;;
23119;SDS011;11729;50.836;4.330;2022-07-23T13:01:44;9.95;;;7.20;;
23119;SDS011;11729;50.836;4.330;2022-07-23T13:04:15;10.45;;;7.38;;
23119;SDS011;11729;50.836;4.330;2022-07-23T13:09:13;6.68;;;6.07;;
23119;SDS011;11729;50.836;4.330;2022-07-23T13:11:40;6.88;;;6.18;;
23119;SDS011;11729;50.836;4.330;2022-07-23T13:14:06;6.75;;;5.97;;
23119;SDS011;11729;50.836;4.330;2022-07-23T13:16:32;7.47;;;6.25;;
23119;SDS011;11729;50.836;4.330;2022-07-23T13:18:59;8.07;;;6.80;;
23119;SDS011;11729;50.836;4.330;2022-07-23T13:21:26;7.30;;;6.40;;
23119;SDS011;11729;50.836;4.330;2022-07-23T13:23:53;8.55;;;6.47;;
23119;SDS011;11729;50.836;4.330;2022-07-23T13:26:19;7.40;;;6.10;;
23119;SDS011;11729;50.836;4.330;2022-07-23T13:28:45;11.65;;;6.80;;
23119;SDS011;11729;50.836;4.330;2022-07-23T13:31:10;11.10;;;6.57;;
23119;SDS011;11729;50.836;4.330;2022-07-23T13:33:36;10.70;;;6.53;;
23119;SDS011;11729;50.836;4.330;2022-07-23T13:36:04;7.78;;;6.57;;
23119;SDS011;11729;50.836;4.330;2022-07-23T13:38:30;8.15;;;6.60;;
23119;SDS011;11729;50.836;4.330;2022-07-23T13:40:55;9.10;;;6.38;;
23119;SDS011;11729;50.836;4.330;2022-07-23T13:43:22;7.40;;;6.30;;
23119;SDS011;11729;50.836;4.330;2022-07-23T13:48:14;7.30;;;6.10;;
23119;SDS011;11729;50.836;4.330;2022-07-23T13:50:41;10.35;;;6.40;;
23119;SDS011;11729;50.836;4.330;2022-07-23T13:53:09;8.18;;;6.40;;
23119;SDS011;11729;50.836;4.330;2022-07-23T13:55:37;7.30;;;6.50;;
23119;SDS011;11729;50.836;4.330;2022-07-23T13:58:05;8.05;;;6.30;;
23119;SDS011;11729;50.836;4.330;2022-07-23T14:00:31;6.47;;;5.93;;
23119;SDS011;11729;50.836;4.330;2022-07-23T14:02:59;8.25;;;6.45;;
23119;SDS011;11729;50.836;4.330;2022-07-23T14:05:25;8.45;;;6.32;;
23119;SDS011;11729;50.836;4.330;2022-07-23T14:07:52;7.30;;;6.60;;
23119;SDS011;11729;50.836;4.330;2022-07-23T14:10:19;9.13;;;6.28;;
23119;SDS011;11729;50.836;4.330;2022-07-23T14:12:46;8.93;;;6.70;;
23119;SDS011;11729;50.836;4.330;2022-07-23T14:15:12;7.47;;;6.77;;
23119;SDS011;11729;50.836;4.330;2022-07-23T14:17:39;11.30;;;7.05;;
23119;SDS011;11729;50.836;4.330;2022-07-23T14:20:06;9.32;;;7.22;;
23119;SDS011;11729;50.836;4.330;2022-07-23T14:22:33;10.13;;;7.15;;
23119;SDS011;11729;50.836;4.330;2022-07-23T14:24:58;7.28;;;6.57;;
23119;SDS011;11729;50.836;4.330;2022-07-23T14:27:25;7.95;;;6.85;;
23119;SDS011;11729;50.836;4.330;2022-07-23T14:29:51;6.95;;;6.35;;
23119;SDS011;11729;50.836;4.330;2022-07-23T14:32:17;9.85;;;6.80;;
23119;SDS011;11729;50.836;4.330;2022-07-23T14:34:43;10.02;;;6.80;;
23119;SDS011;11729;50.836;4.330;2022-07-23T14:37:09;9.07;;;6.75;;
23119;SDS011;11729;50.836;4.330;2022-07-23T14:42:01;7.90;;;6.60;;
23119;SDS011;11729;50.836;4.330;2022-07-23T14:44:27;8.82;;;6.78;;
23119;SDS011;11729;50.836;4.330;2022-07-23T14:46:53;11.63;;;7.55;;
23119;SDS011;11729;50.836;4.330;2022-07-23T14:49:19;8.20;;;7.40;;
23119;SDS011;11729;50.836;4.330;2022-07-23T14:51:44;11.77;;;7.13;;
23119;SDS011;11729;50.836;4.330;2022-07-23T14:54:10;11.52;;;6.95;;
23119;SDS011;11729;50.836;4.330;2022-07-23T14:56:36;8.43;;;7.35;;
23119;SDS011;11729;50.836;4.330;2022-07-23T14:59:02;8.02;;;7.22;;
23119;SDS011;11729;50.836;4.330;2022-07-23T15:03:54;7.88;;;7.15;;
23119;SDS011;11729;50.836;4.330;2022-07-23T15:06:20;10.52;;;7.50;;
23119;SDS011;11729;50.836;4.330;2022-07-23T15:08:46;8.93;;;7.35;;
23119;SDS011;11729;50.836;4.330;2022-07-23T15:11:11;10.75;;;7.60;;
23119;SDS011;11729;50.836;4.330;2022-07-23T15:13:37;7.55;;;6.85;;
23119;SDS011;11729;50.836;4.330;2022-07-23T15:16:04;10.95;;;7.50;;
23119;SDS011;11729;50.836;4.330;2022-07-23T15:18:31;8.07;;;7.28;;
23119;SDS011;11729;50.836;4.330;2022-07-23T15:20:57;8.38;;;7.55;;
23119;SDS011;11729;50.836;4.330;2022-07-23T15:23:23;8.40;;;7.53;;
23119;SDS011;11729;50.836;4.330;2022-07-23T15:25:48;8.52;;;7.25;;
23119;SDS011;11729;50.836;4.330;2022-07-23T15:28:14;8.15;;;7.30;;
23119;SDS011;11729;50.836;4.330;2022-07-23T15:30:40;7.82;;;7.03;;
23119;SDS011;11729;50.836;4.330;2022-07-23T15:33:06;7.95;;;7.00;;